Time;durP1;ratioP1;P1;durP2;ratioP2;P2;SDS_P1;SDS_P2;PMS_P1;PMS_P2;Temp;Humidity;BMP_temperature;BMP_pressure;BME280_temperature;BME280_humidity;BME280_pressure;Samples;Min_cycle;Max_cycle;Signal;HPM_P1;HPM_P2
2022/07/13 00:01:21;;;;;;;1.27;0.60;;;12.10;76.00;;;;;;5011006;28;20072;-66
2022/07/13 00:03:49;;;;;;;1.52;0.60;;;12.10;76.60;;;;;;5014892;28;20079;-66
2022/07/13 00:06:16;;;;;;;1.70;0.50;;;12.00;77.00;;;;;;5006953;28;20022;-65
2022/07/13 00:08:43;;;;;;;2.75;0.82;;;12.10;76.60;;;;;;5020455;28;20534;-65
2022/07/13 00:11:10;;;;;;;4.40;1.75;;;12.10;75.90;;;;;;5009990;28;20036;-65
2022/07/13 00:13:38;;;;;;;2.45;1.33;;;12.20;76.30;;;;;;5026991;28;20029;-65
2022/07/13 00:16:05;;;;;;;0.70;0.50;;;12.20;76.40;;;;;;5023662;28;20032;-65
2022/07/13 00:18:32;;;;;;;6.60;0.57;;;12.20;76.30;;;;;;5018551;28;20393;-66
2022/07/13 00:21:00;;;;;;;5.05;1.63;;;12.20;75.30;;;;;;5019062;28;20033;-66
2022/07/13 00:23:27;;;;;;;3.90;0.50;;;12.30;77.50;;;;;;5010733;28;20053;-66
2022/07/13 00:25:54;;;;;;;2.15;0.93;;;12.40;75.70;;;;;;5013201;28;20026;-65
2022/07/13 00:28:22;;;;;;;1.15;0.47;;;12.40;76.70;;;;;;5013128;28;20042;-65
2022/07/13 00:30:49;;;;;;;2.72;0.77;;;12.60;75.10;;;;;;5018630;28;20021;-69
2022/07/13 00:33:16;;;;;;;3.28;0.40;;;12.80;75.00;;;;;;5016795;28;20029;-63
2022/07/13 00:35:43;;;;;;;0.82;0.40;;;13.00;71.50;;;;;;5026627;28;20021;-64
2022/07/13 00:38:10;;;;;;;3.67;0.60;;;13.10;70.70;;;;;;5014699;28;20552;-65
2022/07/13 00:40:38;;;;;;;1.85;0.35;;;13.00;70.50;;;;;;5025870;28;20071;-67
2022/07/13 00:43:05;;;;;;;4.88;0.80;;;13.10;71.80;;;;;;4996963;28;20105;-66
2022/07/13 00:45:32;;;;;;;1.67;0.50;;;13.10;71.60;;;;;;4994017;28;20073;-66
2022/07/13 00:48:00;;;;;;;4.47;0.50;;;13.00;71.50;;;;;;5003969;28;20045;-68
2022/07/13 00:50:27;;;;;;;2.17;0.50;;;13.00;71.10;;;;;;4996673;28;20033;-66
2022/07/13 00:52:55;;;;;;;6.35;0.70;;;12.90;71.70;;;;;;4998840;28;20399;-66
2022/07/13 00:55:22;;;;;;;1.40;0.50;;;12.90;71.70;;;;;;4999810;28;20459;-67
2022/07/13 00:57:50;;;;;;;0.30;0.22;;;13.00;73.10;;;;;;5000838;28;20029;-67
2022/07/13 01:00:17;;;;;;;2.72;0.40;;;13.10;71.00;;;;;;5001241;28;20022;-65
2022/07/13 01:02:46;;;;;;;2.65;0.40;;;13.10;70.70;;;;;;5005273;28;20030;-64
2022/07/13 01:05:15;;;;;;;7.97;1.75;;;13.00;71.10;;;;;;4997548;28;20415;-67
2022/07/13 01:07:44;;;;;;;1.50;0.70;;;13.00;71.10;;;;;;4998381;28;20042;-65
2022/07/13 01:10:13;;;;;;;4.78;0.60;;;13.00;71.30;;;;;;4996373;28;20061;-65
2022/07/13 01:12:41;;;;;;;0.52;0.40;;;12.90;71.20;;;;;;5016866;28;20169;-66
2022/07/13 01:15:09;;;;;;;1.35;0.70;;;12.80;72.60;;;;;;5000369;28;20021;-67
2022/07/13 01:17:38;;;;;;;0.90;0.30;;;12.80;71.80;;;;;;5000346;28;20026;-67
2022/07/13 01:20:07;;;;;;;6.05;0.68;;;12.80;72.60;;;;;;4993512;28;20026;-67
2022/07/13 01:22:42;;;;;;;2.28;0.60;;;12.90;71.90;;;;;;4994276;28;20023;-67
2022/07/13 01:25:10;;;;;;;1.58;0.63;;;13.00;72.30;;;;;;4995843;28;20027;-68
2022/07/13 01:27:40;;;;;;;2.25;0.60;;;13.10;73.20;;;;;;4998258;28;20027;-67
2022/07/13 01:30:08;;;;;;;5.75;0.60;;;13.30;71.80;;;;;;4997965;28;20436;-66
2022/07/13 01:32:52;;;;;;;1.48;0.50;;;13.60;71.60;;;;;;4997569;28;20062;-66
2022/07/13 01:35:21;;;;;;;3.08;0.75;;;13.80;71.00;;;;;;4998087;28;20033;-65
2022/07/13 01:37:49;;;;;;;2.65;0.57;;;14.00;69.30;;;;;;4999457;28;20050;-66
2022/07/13 01:40:17;;;;;;;3.50;1.45;;;14.10;67.90;;;;;;4994317;28;20026;-67
2022/07/13 01:42:45;;;;;;;2.95;0.65;;;14.30;68.10;;;;;;4993929;28;20049;-67
2022/07/13 01:45:14;;;;;;;4.00;0.73;;;14.20;66.90;;;;;;5018334;28;20026;-66
2022/07/13 01:47:43;;;;;;;1.38;0.57;;;14.20;67.30;;;;;;5002657;28;20112;-67
2022/07/13 01:50:13;;;;;;;3.30;0.68;;;14.30;69.00;;;;;;5002110;28;20558;-66
2022/07/13 01:52:40;;;;;;;5.22;0.52;;;14.40;67.80;;;;;;5007859;28;20057;-66
2022/07/13 01:55:11;;;;;;;2.70;0.50;;;14.50;67.20;;;;;;5005341;28;20537;-65
2022/07/13 01:57:38;;;;;;;4.43;1.05;;;14.50;65.30;;;;;;5008165;28;20049;-65
2022/07/13 02:00:19;;;;;;;3.65;0.90;;;14.40;65.50;;;;;;5008325;28;20017;-65
2022/07/13 02:02:48;;;;;;;2.25;0.80;;;14.40;65.40;;;;;;5003667;28;20026;-67
2022/07/13 02:05:16;;;;;;;1.33;0.40;;;14.40;65.00;;;;;;5010529;28;20509;-65
2022/07/13 02:07:43;;;;;;;1.92;0.50;;;14.40;65.60;;;;;;5004946;28;20045;-65
2022/07/13 02:10:12;;;;;;;1.40;0.52;;;14.40;64.80;;;;;;5021114;28;20026;-65
2022/07/13 02:12:40;;;;;;;3.45;1.30;;;14.50;65.90;;;;;;5003763;28;20049;-68
2022/07/13 02:15:10;;;;;;;1.42;0.47;;;14.60;64.90;;;;;;5010570;28;20061;-65
2022/07/13 02:17:37;;;;;;;1.38;0.50;;;14.60;64.90;;;;;;5008954;28;20033;-64
2022/07/13 02:20:05;;;;;;;2.97;0.40;;;14.70;64.40;;;;;;5006678;28;20026;-65
2022/07/13 02:22:45;;;;;;;2.25;0.63;;;14.80;65.20;;;;;;5001754;28;20503;-64
2022/07/13 02:25:13;;;;;;;4.18;0.90;;;14.90;65.00;;;;;;4999543;28;20054;-65
2022/07/13 02:27:42;;;;;;;1.10;0.65;;;15.00;64.00;;;;;;5001333;28;20116;-67
2022/07/13 02:30:13;;;;;;;1.77;0.55;;;14.90;63.10;;;;;;5000346;28;20079;-65
2022/07/13 02:32:44;;;;;;;3.47;1.10;;;14.90;63.20;;;;;;5000170;28;20042;-66
2022/07/13 02:35:13;;;;;;;2.40;0.57;;;14.90;64.60;;;;;;5004568;28;20022;-65
2022/07/13 02:37:41;;;;;;;3.83;0.60;;;15.00;64.00;;;;;;5008382;28;20536;-66
2022/07/13 02:40:10;;;;;;;1.40;0.60;;;15.10;64.80;;;;;;5025819;28;20021;-66
2022/07/13 02:42:38;;;;;;;2.72;0.50;;;15.30;62.50;;;;;;5009823;28;20029;-67
2022/07/13 02:45:07;;;;;;;2.30;0.47;;;15.40;61.20;;;;;;5022676;28;20108;-64
2022/07/13 02:47:34;;;;;;;3.05;0.60;;;15.30;62.00;;;;;;5009988;28;20410;-64
2022/07/13 02:50:02;;;;;;;2.00;0.50;;;15.50;62.00;;;;;;5015893;28;20026;-64
2022/07/13 02:52:29;;;;;;;2.67;0.52;;;15.60;62.10;;;;;;5009571;28;20464;-62
2022/07/13 02:54:58;;;;;;;4.22;0.40;;;15.80;62.00;;;;;;5010890;28;20526;-62
2022/07/13 02:57:26;;;;;;;2.15;0.52;;;15.90;60.80;;;;;;5014342;28;20026;-63
2022/07/13 02:59:53;;;;;;;0.55;0.40;;;16.00;60.70;;;;;;5018143;28;20160;-62
2022/07/13 03:02:20;;;;;;;3.58;0.57;;;15.90;61.10;;;;;;5008668;28;20022;-63
2022/07/13 03:04:48;;;;;;;2.08;1.13;;;15.80;61.00;;;;;;5020342;28;20026;-63
2022/07/13 03:07:15;;;;;;;2.05;0.55;;;15.70;61.90;;;;;;5007409;28;20022;-62
2022/07/13 03:09:43;;;;;;;2.53;0.30;;;15.70;62.90;;;;;;5005696;28;20029;-64
2022/07/13 03:12:11;;;;;;;1.52;0.40;;;15.60;62.40;;;;;;5012334;28;20026;-65
2022/07/13 03:14:38;;;;;;;1.42;0.60;;;15.50;63.60;;;;;;5014471;28;20029;-63
2022/07/13 03:17:06;;;;;;;1.27;0.45;;;15.30;62.20;;;;;;5020645;28;20034;-66
2022/07/13 03:19:34;;;;;;;4.00;0.60;;;15.20;62.70;;;;;;5027428;28;20112;-65
2022/07/13 03:22:04;;;;;;;6.10;0.70;;;15.20;62.80;;;;;;5013532;28;20104;-64
2022/07/13 03:24:31;;;;;;;1.13;0.50;;;15.30;61.90;;;;;;5010457;28;20471;-63
2022/07/13 03:26:59;;;;;;;0.98;0.50;;;15.40;62.90;;;;;;5007257;28;20030;-65
2022/07/13 03:29:26;;;;;;;1.35;0.40;;;15.40;62.10;;;;;;5007081;28;20030;-64
2022/07/13 03:31:54;;;;;;;1.15;0.68;;;15.40;62.60;;;;;;5012471;28;20101;-67
2022/07/13 03:34:21;;;;;;;2.20;0.60;;;15.50;61.90;;;;;;5013367;28;20498;-65
2022/07/13 03:36:48;;;;;;;4.18;0.55;;;15.60;62.10;;;;;;5009945;28;20050;-65
2022/07/13 03:39:15;;;;;;;2.92;0.50;;;15.60;60.90;;;;;;5022186;28;20026;-64
2022/07/13 03:41:43;;;;;;;1.95;0.30;;;15.60;61.30;;;;;;5022020;28;20044;-64
2022/07/13 03:44:12;;;;;;;1.85;0.50;;;15.60;59.10;;;;;;5010599;28;20498;-65
2022/07/13 03:46:40;;;;;;;1.77;0.35;;;15.50;59.20;;;;;;5014831;28;20053;-70
2022/07/13 03:49:08;;;;;;;3.40;0.45;;;15.50;58.80;;;;;;5010214;28;20033;-67
2022/07/13 03:51:36;;;;;;;4.15;0.57;;;15.30;58.40;;;;;;5010602;28;20022;-66
2022/07/13 03:54:04;;;;;;;1.38;0.30;;;15.20;58.70;;;;;;5000580;28;20076;-65
2022/07/13 03:56:31;;;;;;;1.58;0.50;;;15.00;59.70;;;;;;5010019;28;20455;-65
2022/07/13 03:58:59;;;;;;;1.38;0.50;;;14.90;58.60;;;;;;5011114;28;20053;-65
2022/07/13 04:01:26;;;;;;;2.53;0.77;;;14.80;59.60;;;;;;5010162;28;20017;-65
2022/07/13 04:03:53;;;;;;;1.23;0.50;;;14.60;60.60;;;;;;5020836;28;20114;-64
2022/07/13 04:06:21;;;;;;;1.60;0.70;;;14.60;60.40;;;;;;5008871;28;20036;-65
2022/07/13 04:08:48;;;;;;;0.65;0.30;;;14.60;61.00;;;;;;5012916;28;20100;-65
2022/07/13 04:11:15;;;;;;;1.65;0.63;;;14.70;61.50;;;;;;5008183;28;20446;-65
2022/07/13 04:13:42;;;;;;;1.00;0.40;;;14.60;61.00;;;;;;5018731;28;20393;-66
2022/07/13 04:16:10;;;;;;;1.20;0.85;;;14.60;61.60;;;;;;5009141;28;20057;-69
2022/07/13 04:18:37;;;;;;;2.50;0.55;;;14.60;61.30;;;;;;5007121;28;20026;-66
2022/07/13 04:21:07;;;;;;;2.72;0.60;;;14.60;61.50;;;;;;5004098;28;20034;-66
2022/07/13 04:23:34;;;;;;;3.35;0.40;;;14.70;62.20;;;;;;5009280;28;20029;-66
2022/07/13 04:26:01;;;;;;;2.58;0.40;;;14.80;62.70;;;;;;5015195;28;20021;-65
2022/07/13 04:28:28;;;;;;;2.00;0.82;;;14.90;61.70;;;;;;5006773;28;20348;-66
2022/07/13 04:30:56;;;;;;;1.33;0.32;;;14.90;60.90;;;;;;5000485;28;20100;-66
2022/07/13 04:33:23;;;;;;;1.10;0.50;;;14.90;59.90;;;;;;5010583;28;20074;-66
2022/07/13 04:35:50;;;;;;;3.50;0.47;;;15.00;60.60;;;;;;5005815;28;20030;-65
2022/07/13 04:38:17;;;;;;;0.85;0.30;;;15.10;60.20;;;;;;5014142;28;20174;-65
2022/07/13 04:40:46;;;;;;;1.38;0.47;;;15.20;60.70;;;;;;5019094;28;20022;-64
2022/07/13 04:43:14;;;;;;;2.03;0.40;;;15.30;59.90;;;;;;5012829;28;20034;-64
2022/07/13 04:45:41;;;;;;;1.40;0.50;;;15.50;59.00;;;;;;5014259;28;20022;-62
2022/07/13 04:48:08;;;;;;;4.47;0.40;;;15.80;58.70;;;;;;5009228;28;20037;-64
2022/07/13 04:50:36;;;;;;;1.23;0.50;;;16.00;58.10;;;;;;5007990;28;20022;-65
2022/07/13 04:53:03;;;;;;;1.55;0.35;;;15.80;57.40;;;;;;5006648;28;20034;-64
2022/07/13 04:55:31;;;;;;;3.85;1.70;;;15.60;57.10;;;;;;5006676;28;20022;-64
2022/07/13 04:57:58;;;;;;;1.13;0.40;;;15.40;57.60;;;;;;5011849;28;20055;-64
2022/07/13 05:00:25;;;;;;;0.98;0.65;;;15.10;59.70;;;;;;5006758;28;20041;-63
2022/07/13 05:02:53;;;;;;;3.92;2.05;;;15.00;59.80;;;;;;5009711;28;20058;-62
2022/07/13 05:05:21;;;;;;;2.78;0.50;;;14.90;59.30;;;;;;5008505;28;20092;-62
2022/07/13 05:07:48;;;;;;;1.20;0.30;;;14.90;60.30;;;;;;5009854;28;20034;-62
2022/07/13 05:10:15;;;;;;;0.85;0.40;;;14.80;60.20;;;;;;5010768;28;20635;-62
2022/07/13 05:12:43;;;;;;;7.55;0.70;;;14.70;60.90;;;;;;5008688;28;20037;-63
2022/07/13 05:15:11;;;;;;;1.08;0.30;;;14.70;60.40;;;;;;5006496;28;20045;-65
2022/07/13 05:17:38;;;;;;;1.50;0.50;;;14.60;61.60;;;;;;5011251;28;20026;-65
2022/07/13 05:20:07;;;;;;;1.60;0.30;;;14.50;59.70;;;;;;5012732;28;20029;-64
2022/07/13 05:22:34;;;;;;;0.63;0.50;;;14.50;61.30;;;;;;5008153;28;20025;-65
2022/07/13 05:25:01;;;;;;;1.17;0.60;;;14.40;61.70;;;;;;5009707;28;20049;-65
2022/07/13 05:27:28;;;;;;;1.02;0.40;;;14.50;61.10;;;;;;5013221;28;20030;-65
2022/07/13 05:29:55;;;;;;;1.52;0.40;;;14.50;61.80;;;;;;5026639;28;20024;-65
2022/07/13 05:32:23;;;;;;;2.08;0.50;;;14.50;62.40;;;;;;5017131;28;20032;-63
2022/07/13 05:34:50;;;;;;;1.75;0.40;;;14.40;62.70;;;;;;5016816;28;20033;-64
2022/07/13 05:37:17;;;;;;;0.70;0.40;;;14.40;61.60;;;;;;5008978;28;20533;-64
2022/07/13 05:39:46;;;;;;;0.93;0.32;;;14.40;63.20;;;;;;5010288;28;20097;-64
2022/07/13 05:42:14;;;;;;;0.88;0.32;;;14.40;62.00;;;;;;5019318;28;20033;-64
2022/07/13 05:44:41;;;;;;;1.02;0.40;;;14.30;63.00;;;;;;5007130;28;20030;-64
2022/07/13 05:47:09;;;;;;;1.27;0.40;;;14.20;63.30;;;;;;5015611;28;20415;-64
2022/07/13 05:49:36;;;;;;;6.18;0.63;;;14.20;63.80;;;;;;5014208;28;20029;-64
2022/07/13 05:52:03;;;;;;;0.50;0.30;;;14.20;64.10;;;;;;5013145;28;20025;-64
2022/07/13 05:54:31;;;;;;;0.70;0.30;;;14.10;64.30;;;;;;5008454;28;20029;-63
2022/07/13 05:56:59;;;;;;;2.40;0.50;;;14.00;63.50;;;;;;5015491;28;20029;-64
2022/07/13 05:59:26;;;;;;;0.50;0.30;;;14.00;63.20;;;;;;5005589;28;20426;-64
2022/07/13 06:01:53;;;;;;;7.32;1.02;;;14.00;64.20;;;;;;5005135;28;20037;-65
2022/07/13 06:04:21;;;;;;;1.15;0.50;;;13.90;63.90;;;;;;5011943;28;20489;-64
2022/07/13 06:06:49;;;;;;;0.65;0.40;;;13.90;63.70;;;;;;5013397;28;20022;-64
2022/07/13 06:09:16;;;;;;;1.00;0.47;;;13.80;64.40;;;;;;5015716;28;20022;-65
2022/07/13 06:11:46;;;;;;;2.72;0.52;;;13.70;65.00;;;;;;5010212;28;20034;-64
2022/07/13 06:14:14;;;;;;;1.65;0.35;;;13.60;64.00;;;;;;5005087;28;20048;-63
2022/07/13 06:16:41;;;;;;;1.70;0.60;;;13.60;64.70;;;;;;5015427;28;20072;-63
2022/07/13 06:19:08;;;;;;;0.65;0.47;;;13.50;64.90;;;;;;5011894;28;20510;-64
2022/07/13 06:21:35;;;;;;;5.30;0.60;;;13.50;64.90;;;;;;5012216;28;20032;-64
2022/07/13 06:24:02;;;;;;;1.10;0.60;;;13.50;65.10;;;;;;5016795;28;20018;-64
2022/07/13 06:26:31;;;;;;;1.02;0.60;;;13.50;64.40;;;;;;5018977;28;20658;-64
2022/07/13 06:28:58;;;;;;;3.30;0.63;;;13.40;64.50;;;;;;5014852;28;20036;-64
2022/07/13 06:31:25;;;;;;;1.05;0.60;;;13.40;66.20;;;;;;5020340;28;20022;-65
2022/07/13 06:33:52;;;;;;;1.15;0.63;;;13.30;65.70;;;;;;5011351;28;20495;-65
2022/07/13 06:36:19;;;;;;;0.85;0.52;;;13.20;66.50;;;;;;5019296;28;20029;-65
2022/07/13 06:38:47;;;;;;;0.88;0.63;;;13.20;66.40;;;;;;5020688;28;20402;-65
2022/07/13 06:41:14;;;;;;;2.65;0.70;;;13.20;66.80;;;;;;5016596;28;20026;-65
2022/07/13 06:43:41;;;;;;;0.73;0.60;;;13.10;67.40;;;;;;5019079;28;20117;-64
2022/07/13 06:46:10;;;;;;;1.63;0.60;;;13.00;65.60;;;;;;5017625;28;20040;-64
2022/07/13 06:48:37;;;;;;;0.77;0.63;;;13.00;65.70;;;;;;5019495;28;20450;-63
2022/07/13 06:51:05;;;;;;;1.17;0.80;;;13.00;65.90;;;;;;5002276;28;20076;-62
2022/07/13 06:53:33;;;;;;;3.30;1.90;;;12.90;67.10;;;;;;5018386;28;20443;-63
2022/07/13 06:56:00;;;;;;;2.88;1.00;;;12.90;66.20;;;;;;5004885;28;20041;-65
2022/07/13 06:58:27;;;;;;;3.47;0.80;;;12.80;66.60;;;;;;5000439;28;20517;-64
2022/07/13 07:00:54;;;;;;;3.17;1.80;;;12.70;66.60;;;;;;5004986;28;20434;-65
2022/07/13 07:03:21;;;;;;;4.65;2.72;;;12.70;67.00;;;;;;4998009;28;20587;-63
2022/07/13 07:05:51;;;;;;;4.40;2.58;;;12.60;67.30;;;;;;5000481;28;20057;-65
2022/07/13 07:08:18;;;;;;;7.75;4.78;;;12.50;67.10;;;;;;5000981;28;20546;-65
2022/07/13 07:10:46;;;;;;;3.55;1.20;;;12.50;68.40;;;;;;5005390;28;20037;-64
2022/07/13 07:13:14;;;;;;;9.68;7.00;;;12.40;68.70;;;;;;5003139;28;20030;-65
2022/07/13 07:15:41;;;;;;;4.68;3.22;;;12.30;68.80;;;;;;5007462;28;20033;-64
2022/07/13 07:18:09;;;;;;;12.20;5.25;;;12.10;69.40;;;;;;5008610;28;20029;-64
2022/07/13 07:20:36;;;;;;;2.00;1.40;;;12.00;69.50;;;;;;5004157;28;20471;-64
2022/07/13 07:23:04;;;;;;;4.35;3.33;;;12.00;70.10;;;;;;5001177;28;20109;-64
2022/07/13 07:25:31;;;;;;;4.55;2.20;;;11.90;70.60;;;;;;5003095;28;20026;-64
2022/07/13 07:27:58;;;;;;;3.15;1.55;;;11.80;70.70;;;;;;5004192;28;20037;-65
2022/07/13 07:30:26;;;;;;;1.45;1.00;;;11.80;70.90;;;;;;5003029;28;20018;-62
2022/07/13 07:32:53;;;;;;;2.25;1.00;;;11.70;71.20;;;;;;4999050;28;20435;-62
2022/07/13 07:35:20;;;;;;;3.70;1.70;;;11.70;71.10;;;;;;5000943;28;20380;-66
2022/07/13 07:37:47;;;;;;;3.65;2.83;;;11.70;71.80;;;;;;5001372;28;20032;-65
2022/07/13 07:40:15;;;;;;;22.65;18.17;;;11.70;71.60;;;;;;4998907;28;20053;-62
2022/07/13 07:42:42;;;;;;;5.07;4.18;;;11.70;72.80;;;;;;4999012;28;20102;-63
2022/07/13 07:45:10;;;;;;;5.57;2.78;;;11.60;72.10;;;;;;5002023;28;20076;-66
2022/07/13 07:47:38;;;;;;;4.75;1.70;;;11.60;72.20;;;;;;5002856;28;20052;-63
2022/07/13 07:50:06;;;;;;;2.97;1.10;;;11.60;72.20;;;;;;5000552;28;20119;-63
2022/07/13 07:52:34;;;;;;;2.22;1.20;;;11.50;72.80;;;;;;5003383;28;20434;-63
2022/07/13 07:55:01;;;;;;;3.03;1.73;;;11.50;73.00;;;;;;5002579;28;20023;-64
2022/07/13 07:57:29;;;;;;;1.80;1.20;;;11.40;72.80;;;;;;5009108;28;20073;-63
2022/07/13 07:59:57;;;;;;;1.40;1.00;;;11.50;72.60;;;;;;5006663;28;20040;-64
2022/07/13 08:02:24;;;;;;;1.63;1.20;;;11.50;72.50;;;;;;5003479;28;20019;-63
2022/07/13 08:04:51;;;;;;;3.10;1.20;;;11.40;72.80;;;;;;5003922;28;20018;-64
2022/07/13 08:07:19;;;;;;;3.97;1.10;;;11.40;73.20;;;;;;5003523;28;20026;-64
2022/07/13 08:09:46;;;;;;;3.40;0.90;;;11.40;73.40;;;;;;5001576;28;20022;-64
2022/07/13 08:12:13;;;;;;;1.88;0.80;;;11.30;74.10;;;;;;5000596;28;20018;-63
2022/07/13 08:14:40;;;;;;;1.45;0.98;;;11.10;75.00;;;;;;5005570;28;20018;-66
2022/07/13 08:17:08;;;;;;;2.80;1.02;;;11.00;75.50;;;;;;5005028;28;20025;-62
2022/07/13 08:19:36;;;;;;;2.00;1.27;;;10.90;76.20;;;;;;5009272;28;20033;-63
2022/07/13 08:22:03;;;;;;;1.58;0.82;;;10.90;76.20;;;;;;5022484;28;20033;-63
2022/07/13 08:24:31;;;;;;;3.88;1.00;;;10.80;76.40;;;;;;5016521;28;20038;-63
2022/07/13 08:26:58;;;;;;;2.63;0.98;;;10.70;77.00;;;;;;4992538;28;20038;-63
2022/07/13 08:29:25;;;;;;;1.60;0.70;;;10.60;77.10;;;;;;5004490;28;20022;-63
2022/07/13 08:31:52;;;;;;;2.35;1.17;;;10.60;77.90;;;;;;5017369;28;20102;-63
2022/07/13 08:39:49;;;;;;;;;;;10.70;78.50;;;;;;4998165;28;20039;-62
2022/07/13 08:42:16;;;;;;;2.40;1.20;;;10.80;77.80;;;;;;5022429;28;19940;-63
2022/07/13 08:44:44;;;;;;;1.27;1.00;;;10.80;77.70;;;;;;5012064;28;20026;-63
2022/07/13 08:47:11;;;;;;;1.45;1.00;;;10.80;77.60;;;;;;5009993;28;20060;-64
2022/07/13 08:49:38;;;;;;;1.33;0.82;;;10.80;77.30;;;;;;4991193;28;20360;-63
2022/07/13 08:52:06;;;;;;;1.33;0.80;;;10.80;77.40;;;;;;4993907;28;20026;-63
2022/07/13 08:54:34;;;;;;;5.07;1.45;;;10.90;77.10;;;;;;5007599;28;20112;-64
2022/07/13 08:57:01;;;;;;;3.70;0.80;;;10.90;77.70;;;;;;5007400;28;20021;-63
2022/07/13 08:59:28;;;;;;;1.25;0.82;;;10.90;77.90;;;;;;5006494;28;20033;-62
2022/07/13 09:01:56;;;;;;;1.13;0.75;;;10.90;77.30;;;;;;5004824;28;20116;-63
2022/07/13 09:04:24;;;;;;;6.00;0.90;;;10.90;77.60;;;;;;4998572;28;20024;-63
2022/07/13 09:06:51;;;;;;;3.25;1.27;;;10.90;77.20;;;;;;4998301;28;20033;-63
2022/07/13 09:09:36;;;;;;;2.53;0.70;;;11.00;77.00;;;;;;5018906;28;20049;-63
2022/07/13 09:12:12;;;;;;;;;;;11.00;78.20;;;;;;4996631;28;20030;-63
2022/07/13 09:14:40;;;;;;;2.10;1.08;;;11.00;77.40;;;;;;4996695;28;19918;-63
2022/07/13 09:17:07;;;;;;;1.92;0.80;;;10.90;77.60;;;;;;5001402;28;20109;-63
2022/07/13 09:19:39;;;;;;;1.45;1.02;;;10.90;77.60;;;;;;4996046;28;20023;-63
2022/07/13 09:22:16;;;;;;;2.13;1.58;;;10.90;77.70;;;;;;5002556;28;20029;-65
2022/07/13 09:24:48;;;;;;;1.73;0.90;;;10.90;77.50;;;;;;4993511;28;20018;-65
2022/07/13 09:27:16;;;;;;;3.25;1.17;;;10.90;77.80;;;;;;4994143;28;20522;-65
2022/07/13 09:29:44;;;;;;;5.68;2.17;;;10.90;77.80;;;;;;4995920;28;20030;-65
2022/07/13 09:32:13;;;;;;;1.15;0.75;;;10.90;77.90;;;;;;4997655;28;20026;-64
2022/07/13 09:34:51;;;;;;;1.95;1.08;;;10.80;77.80;;;;;;4996417;28;20034;-64
2022/07/13 09:37:20;;;;;;;2.42;0.65;;;10.70;78.50;;;;;;4996533;28;20588;-63
2022/07/13 09:40:09;;;;;;;1.48;1.00;;;10.60;79.30;;;;;;4996493;28;20038;-63
2022/07/13 09:42:38;;;;;;;1.48;0.85;;;10.60;79.40;;;;;;5007596;28;20042;-63
2022/07/13 09:47:55;;;;;;;1.42;0.90;;;10.50;79.40;;;;;;5011094;28;20111;-64
2022/07/13 09:50:25;;;;;;;1.38;1.00;;;10.50;79.60;;;;;;5011276;28;20101;-64
2022/07/13 09:52:53;;;;;;;1.42;0.95;;;10.60;79.30;;;;;;5012139;28;20037;-62
2022/07/13 09:55:24;;;;;;;2.10;1.50;;;10.70;78.70;;;;;;5010052;28;20076;-63
2022/07/13 09:58:00;;;;;;;2.33;1.52;;;10.70;79.10;;;;;;5009828;28;20030;-64
2022/07/13 10:00:27;;;;;;;1.67;0.90;;;10.80;78.80;;;;;;5010002;28;20037;-64
2022/07/13 10:02:55;;;;;;;2.20;2.00;;;10.80;78.70;;;;;;5005083;28;20398;-63
2022/07/13 10:05:22;;;;;;;2.08;1.15;;;10.80;78.40;;;;;;5010835;28;20022;-63
2022/07/13 10:07:49;;;;;;;2.03;1.30;;;10.80;78.30;;;;;;5010757;28;20029;-64
2022/07/13 10:10:17;;;;;;;3.60;1.30;;;10.80;78.70;;;;;;5009208;28;20030;-63
2022/07/13 10:12:45;;;;;;;2.08;1.00;;;10.80;78.50;;;;;;5010722;28;20033;-63
2022/07/13 10:15:13;;;;;;;3.17;1.48;;;10.80;78.90;;;;;;5010273;28;20105;-64
2022/07/13 10:17:46;;;;;;;2.38;1.20;;;10.70;78.70;;;;;;5008926;28;20088;-65
2022/07/13 10:20:21;;;;;;;1.70;1.40;;;10.70;78.60;;;;;;5010366;28;20466;-65
2022/07/13 10:22:49;;;;;;;3.38;1.50;;;10.70;78.70;;;;;;5010865;28;20395;-64
2022/07/13 10:25:24;;;;;;;2.85;1.63;;;10.60;78.70;;;;;;5010324;28;20083;-63
2022/07/13 10:28:09;;;;;;;4.63;1.42;;;10.50;78.60;;;;;;5010418;28;20026;-63
2022/07/13 10:30:36;;;;;;;4.13;1.70;;;10.50;78.80;;;;;;5011319;28;20402;-63
2022/07/13 10:33:26;;;;;;;3.03;2.22;;;10.40;79.00;;;;;;5010277;28;20442;-64
2022/07/13 10:35:57;;;;;;;2.50;1.45;;;10.40;78.70;;;;;;4994484;28;20187;-64
2022/07/13 10:38:29;;;;;;;3.03;1.50;;;10.30;79.10;;;;;;5008772;28;20021;-64
2022/07/13 10:41:19;;;;;;;2.40;1.60;;;10.30;79.60;;;;;;5009725;28;20495;-63
2022/07/13 10:44:16;;;;;;;6.97;1.42;;;10.10;79.60;;;;;;5004620;28;20057;-63
2022/07/13 10:46:50;;;;;;;4.93;1.88;;;10.10;79.70;;;;;;5007049;28;20045;-65
2022/07/13 10:49:32;;;;;;;;;;;10.00;80.70;;;;;;5009155;28;20447;-65
2022/07/13 10:52:25;;;;;;;2.67;1.73;;;9.90;81.10;;;;;;5009118;28;20356;-64
2022/07/13 10:55:06;;;;;;;2.83;1.55;;;9.90;80.80;;;;;;5007620;28;20065;-64
2022/07/13 10:57:36;;;;;;;2.35;1.67;;;9.90;80.40;;;;;;5006673;28;20057;-64
2022/07/13 11:00:24;;;;;;;2.80;1.63;;;9.80;80.30;;;;;;5008585;28;20025;-64
2022/07/13 11:02:53;;;;;;;2.35;1.85;;;9.80;80.70;;;;;;5009330;28;20041;-63
2022/07/13 11:05:33;;;;;;;2.38;1.40;;;9.80;80.90;;;;;;5009310;28;20030;-63
2022/07/13 11:08:16;;;;;;;4.93;1.92;;;9.80;80.80;;;;;;4996848;28;20042;-64
2022/07/13 11:10:44;;;;;;;3.20;1.77;;;9.80;80.80;;;;;;5009568;28;20044;-65
2022/07/13 11:13:15;;;;;;;4.95;1.48;;;9.80;80.60;;;;;;5009955;28;20042;-63
2022/07/13 11:15:48;;;;;;;3.00;1.70;;;9.90;80.00;;;;;;5009247;28;20491;-63
2022/07/13 11:18:31;;;;;;;2.65;1.52;;;9.90;79.10;;;;;;5006717;28;20026;-64
2022/07/13 11:26:53;;;;;;;5.15;1.55;;;10.00;79.10;;;;;;5009117;28;20055;-63
2022/07/13 11:29:33;;;;;;;2.95;1.58;;;10.00;78.80;;;;;;5005007;28;20046;-62
2022/07/13 11:32:05;;;;;;;3.13;1.15;;;10.00;78.50;;;;;;5008194;28;20437;-61
2022/07/13 11:34:32;;;;;;;5.10;1.70;;;9.90;79.20;;;;;;5008727;28;20153;-61
2022/07/13 11:37:01;;;;;;;3.22;1.77;;;10.00;78.50;;;;;;5008203;28;20486;-64
2022/07/13 11:39:30;;;;;;;3.33;1.92;;;10.00;78.00;;;;;;5009139;28;20037;-63
2022/07/13 11:41:58;;;;;;;5.20;2.00;;;10.00;78.30;;;;;;5008831;28;20036;-64
2022/07/13 11:44:30;;;;;;;3.83;2.08;;;10.00;78.10;;;;;;5008742;28;20057;-64
2022/07/13 11:47:08;;;;;;;2.97;1.73;;;10.00;78.20;;;;;;4989416;28;20411;-63
2022/07/13 11:49:51;;;;;;;5.30;2.30;;;10.00;78.30;;;;;;4999786;28;20112;-64
2022/07/13 11:52:29;;;;;;;4.28;2.03;;;10.00;78.30;;;;;;5008208;28;20234;-62
2022/07/13 11:54:56;;;;;;;3.03;1.95;;;9.90;78.80;;;;;;5008875;28;20026;-64
2022/07/13 11:57:24;;;;;;;2.45;1.70;;;9.90;78.90;;;;;;5007305;28;20034;-64
2022/07/13 11:59:52;;;;;;;2.25;1.60;;;9.80;79.50;;;;;;5006803;28;20034;-63
2022/07/13 12:02:19;;;;;;;3.10;1.50;;;9.80;79.80;;;;;;5007482;28;20030;-63
2022/07/13 12:04:48;;;;;;;5.65;1.70;;;9.80;79.90;;;;;;5008196;28;20038;-63
2022/07/13 12:07:19;;;;;;;2.05;1.33;;;9.70;80.30;;;;;;5008599;28;20487;-63
2022/07/13 12:09:59;;;;;;;4.28;1.30;;;9.60;80.80;;;;;;5006849;28;20052;-63
2022/07/13 12:12:29;;;;;;;3.63;1.27;;;9.60;80.20;;;;;;5007465;28;20083;-62
2022/07/13 12:14:58;;;;;;;8.45;1.05;;;9.60;81.00;;;;;;5008107;28;20037;-62
2022/07/13 12:17:27;;;;;;;4.38;1.10;;;9.50;80.90;;;;;;5007687;28;20033;-64
2022/07/13 12:20:15;;;;;;;2.67;1.20;;;9.50;80.70;;;;;;5003574;28;20117;-64
2022/07/13 12:22:56;;;;;;;6.22;1.08;;;9.50;80.20;;;;;;5001607;28;20100;-64
2022/07/13 12:25:27;;;;;;;2.83;1.25;;;9.60;80.20;;;;;;5008369;28;20092;-63
2022/07/13 12:27:56;;;;;;;1.67;1.10;;;9.50;80.20;;;;;;5008947;28;20033;-63
2022/07/13 12:30:23;;;;;;;2.58;1.00;;;9.50;80.00;;;;;;5010301;28;20018;-63
2022/07/13 12:33:01;;;;;;;4.18;1.38;;;9.60;79.60;;;;;;5010578;28;20030;-63
2022/07/13 12:35:31;;;;;;;1.65;1.05;;;9.60;79.60;;;;;;5010663;28;20506;-62
2022/07/13 12:37:59;;;;;;;4.38;1.10;;;9.60;79.00;;;;;;5010457;28;20026;-62
2022/07/13 12:40:51;;;;;;;2.38;1.25;;;9.70;79.00;;;;;;5008557;28;20406;-62
2022/07/13 12:43:27;;;;;;;1.45;0.93;;;9.60;79.00;;;;;;5008785;28;20033;-64
2022/07/13 12:46:00;;;;;;;2.00;1.00;;;9.60;78.60;;;;;;5010221;28;20061;-64
2022/07/13 12:48:32;;;;;;;1.75;1.00;;;9.60;78.50;;;;;;5010112;28;20403;-64
2022/07/13 12:51:06;;;;;;;2.10;1.63;;;9.70;78.40;;;;;;5009002;28;20088;-65
2022/07/13 12:53:48;;;;;;;1.80;1.08;;;9.60;78.10;;;;;;5009465;28;20200;-65
2022/07/13 12:56:20;;;;;;;1.65;0.90;;;9.70;77.90;;;;;;4998862;28;20080;-64
2022/07/13 12:58:58;;;;;;;2.03;1.00;;;9.60;78.60;;;;;;5010187;28;20036;-63
2022/07/13 13:01:32;;;;;;;1.77;1.05;;;9.50;78.20;;;;;;5010055;28;20111;-64
2022/07/13 13:04:01;;;;;;;3.17;1.30;;;9.60;77.60;;;;;;5008756;28;20497;-64
2022/07/13 13:06:29;;;;;;;1.63;0.95;;;9.70;76.80;;;;;;5010225;28;20274;-62
2022/07/13 13:09:17;;;;;;;2.47;1.10;;;9.70;76.70;;;;;;5010051;28;20096;-63
2022/07/13 13:11:46;;;;;;;2.42;1.52;;;9.70;76.20;;;;;;5010025;28;20026;-65
2022/07/13 13:14:15;;;;;;;1.67;1.05;;;9.70;76.00;;;;;;5009694;28;20034;-65